Time;durP1;ratioP1;P1;durP2;ratioP2;P2;SDS_P1;SDS_P2;PMS_P1;PMS_P2;Temp;Humidity;BMP_temperature;BMP_pressure;BME280_temperature;BME280_humidity;BME280_pressure;Samples;Min_cycle;Max_cycle;Signal;HPM_P1;HPM_P2
2023/01/07 00:01:43;;;;;;;5.85;3.22;;;;;;;;;;5054406;28;20057;-42
2023/01/07 00:04:13;;;;;;;5.43;3.20;;;;;;;;;;5054594;28;20029;-42
2023/01/07 00:06:39;;;;;;;9.10;3.08;;;;;;;;;;5054679;28;20033;-43
2023/01/07 00:09:06;;;;;;;8.07;3.33;;;;;;;;;;5054737;28;20063;-42
2023/01/07 00:11:32;;;;;;;4.85;2.58;;;;;;;;;;5054357;28;20065;-41
2023/01/07 00:13:58;;;;;;;4.43;2.40;;;;;;;;;;5054363;28;20502;-41
2023/01/07 00:16:25;;;;;;;5.18;2.95;;;;;;;;;;5054462;28;20029;-41
2023/01/07 00:18:51;;;;;;;5.88;2.88;;;;;;;;;;5054400;28;20040;-42
2023/01/07 00:21:18;;;;;;;7.57;3.55;;;;;;;;;;5054298;28;20247;-41
2023/01/07 00:23:44;;;;;;;4.18;2.50;;;;;;;;;;5052740;28;20132;-41
2023/01/07 00:26:13;;;;;;;9.75;3.08;;;;;;;;;;5054166;28;20494;-41
2023/01/07 00:28:40;;;;;;;5.38;3.00;;;;;;;;;;5053951;28;20058;-41
2023/01/07 00:31:07;;;;;;;6.15;2.85;;;;;;;;;;5054140;28;20471;-41
2023/01/07 00:33:38;;;;;;;5.82;3.17;;;;;;;;;;5053883;28;20028;-42
2023/01/07 00:36:08;;;;;;;7.13;3.50;;;;;;;;;;5054081;28;20056;-42
2023/01/07 00:38:34;;;;;;;6.70;2.83;;;;;;;;;;5053869;28;20024;-42
2023/01/07 00:41:00;;;;;;;6.22;3.00;;;;;;;;;;5053374;28;20104;-42
2023/01/07 00:43:25;;;;;;;7.38;3.25;;;;;;;;;;5054091;28;20422;-42
2023/01/07 00:45:51;;;;;;;5.35;3.15;;;;;;;;;;5053722;28;20083;-42
2023/01/07 00:48:17;;;;;;;6.65;3.63;;;;;;;;;;5053776;28;20012;-42
2023/01/07 00:50:43;;;;;;;6.85;3.30;;;;;;;;;;5053635;28;20029;-42
2023/01/07 00:53:10;;;;;;;5.45;3.03;;;;;;;;;;5053651;28;20483;-42
2023/01/07 00:55:35;;;;;;;4.90;3.22;;;;;;;;;;5052338;28;20467;-42
2023/01/07 00:58:01;;;;;;;4.35;2.75;;;;;;;;;;5052223;28;20017;-42
2023/01/07 01:00:26;;;;;;;4.90;2.85;;;;;;;;;;5052240;28;20024;-42
2023/01/07 01:02:52;;;;;;;8.00;4.07;;;;;;;;;;5052202;28;20049;-41
2023/01/07 01:05:18;;;;;;;6.57;2.70;;;;;;;;;;5053354;28;20108;-43
2023/01/07 01:07:44;;;;;;;8.10;4.07;;;;;;;;;;5053288;28;20032;-41
2023/01/07 01:10:11;;;;;;;8.57;3.33;;;;;;;;;;5052081;28;20029;-42
2023/01/07 01:12:36;;;;;;;8.88;3.55;;;;;;;;;;5051973;28;20075;-42
2023/01/07 01:15:03;;;;;;;7.32;2.72;;;;;;;;;;5053532;28;20041;-42
2023/01/07 01:17:29;;;;;;;6.57;3.13;;;;;;;;;;5053438;28;20017;-41
2023/01/07 01:19:55;;;;;;;6.55;2.80;;;;;;;;;;5051898;28;20544;-41
2023/01/07 01:22:20;;;;;;;6.38;3.33;;;;;;;;;;5051889;28;20025;-42
2023/01/07 01:24:46;;;;;;;4.45;2.72;;;;;;;;;;5051749;28;20443;-42
2023/01/07 01:27:11;;;;;;;6.07;3.72;;;;;;;;;;5051632;28;20037;-41
2023/01/07 01:29:37;;;;;;;10.10;3.80;;;;;;;;;;5051629;28;20257;-42
2023/01/07 01:32:03;;;;;;;7.03;3.70;;;;;;;;;;5035217;28;20033;-41
2023/01/07 01:34:28;;;;;;;6.57;3.00;;;;;;;;;;5051470;28;20307;-41
2023/01/07 01:36:54;;;;;;;5.13;3.03;;;;;;;;;;5052899;28;20033;-42
2023/01/07 01:39:19;;;;;;;7.97;4.07;;;;;;;;;;5051569;28;20070;-41
2023/01/07 01:41:45;;;;;;;6.47;2.40;;;;;;;;;;5051374;28;20120;-42
2023/01/07 01:44:46;;;;;;;6.10;2.67;;;;;;;;;;5052762;28;20029;-42
2023/01/07 01:47:22;;;;;;;6.20;3.03;;;;;;;;;;5030239;28;20037;-41
2023/01/07 01:49:51;;;;;;;5.85;3.05;;;;;;;;;;5045792;28;20072;-41
2023/01/07 01:52:19;;;;;;;4.93;2.75;;;;;;;;;;5050352;28;20021;-41
2023/01/07 01:54:47;;;;;;;5.40;3.17;;;;;;;;;;5052351;28;20032;-42
2023/01/07 01:57:15;;;;;;;6.53;2.92;;;;;;;;;;5051189;28;20399;-42
2023/01/07 01:59:42;;;;;;;5.82;2.55;;;;;;;;;;5051048;28;20091;-42
2023/01/07 02:02:12;;;;;;;4.75;2.63;;;;;;;;;;5050892;28;20136;-42
2023/01/07 02:04:38;;;;;;;6.97;3.22;;;;;;;;;;5050883;28;20033;-42
2023/01/07 02:07:03;;;;;;;12.23;2.75;;;;;;;;;;5050926;28;20040;-42
2023/01/07 02:09:29;;;;;;;10.13;3.00;;;;;;;;;;5050819;28;20506;-41
2023/01/07 02:12:13;;;;;;;8.05;2.88;;;;;;;;;;5050990;28;20029;-42
2023/01/07 02:14:52;;;;;;;5.68;3.50;;;;;;;;;;5050761;28;20485;-41
2023/01/07 02:17:18;;;;;;;10.38;3.78;;;;;;;;;;5052267;28;20342;-41
2023/01/07 02:20:07;;;;;;;8.02;3.25;;;;;;;;;;5050750;28;20025;-42
2023/01/07 02:22:38;;;;;;;4.95;3.30;;;;;;;;;;5051973;28;20047;-42
2023/01/07 02:25:03;;;;;;;4.10;2.83;;;;;;;;;;5050605;28;20029;-42
2023/01/07 02:27:47;;;;;;;6.63;3.22;;;;;;;;;;5050492;28;20039;-41
2023/01/07 02:30:16;;;;;;;9.23;3.60;;;;;;;;;;5050559;28;20029;-42
2023/01/07 02:32:45;;;;;;;5.88;3.72;;;;;;;;;;5050449;28;20053;-41
2023/01/07 02:35:30;;;;;;;5.40;3.50;;;;;;;;;;5051835;28;20025;-42
2023/01/07 02:38:00;;;;;;;12.30;2.97;;;;;;;;;;5050500;28;20064;-42
2023/01/07 02:40:33;;;;;;;7.38;3.65;;;;;;;;;;5050379;28;20067;-41
2023/01/07 02:42:58;;;;;;;8.65;2.53;;;;;;;;;;5050422;28;20051;-42
2023/01/07 02:45:29;;;;;;;4.60;2.22;;;;;;;;;;5051753;28;20471;-41
2023/01/07 02:47:56;;;;;;;5.57;3.80;;;;;;;;;;5050249;28;20106;-41
2023/01/07 02:50:22;;;;;;;5.60;4.25;;;;;;;;;;5051868;28;20073;-41
2023/01/07 02:52:49;;;;;;;7.85;4.13;;;;;;;;;;5051438;28;20040;-42
2023/01/07 02:55:16;;;;;;;7.68;3.05;;;;;;;;;;5051799;28;20044;-41
2023/01/07 02:57:48;;;;;;;9.93;3.97;;;;;;;;;;5050124;28;20032;-42
2023/01/07 03:00:31;;;;;;;11.20;3.65;;;;;;;;;;5050099;28;20142;-42
2023/01/07 03:03:01;;;;;;;4.15;2.63;;;;;;;;;;5051268;28;20048;-42
2023/01/07 03:05:47;;;;;;;8.70;2.70;;;;;;;;;;5049783;28;20047;-42
2023/01/07 03:08:20;;;;;;;6.63;3.70;;;;;;;;;;5051626;28;20090;-42
2023/01/07 03:10:48;;;;;;;8.88;3.45;;;;;;;;;;5051577;28;20029;-42
2023/01/07 03:13:17;;;;;;;10.30;4.32;;;;;;;;;;5049875;28;20036;-41
2023/01/07 03:15:44;;;;;;;12.00;3.58;;;;;;;;;;5049908;28;20037;-42
2023/01/07 03:18:13;;;;;;;6.15;3.15;;;;;;;;;;5050015;28;20017;-41
2023/01/07 03:20:40;;;;;;;9.43;2.88;;;;;;;;;;5051090;28;20041;-41
2023/01/07 03:23:06;;;;;;;11.43;3.53;;;;;;;;;;5051500;28;20387;-42
2023/01/07 03:25:34;;;;;;;6.55;3.38;;;;;;;;;;5051286;28;20507;-41
2023/01/07 03:28:00;;;;;;;5.18;3.20;;;;;;;;;;5049882;28;20143;-41
2023/01/07 03:30:29;;;;;;;5.20;3.55;;;;;;;;;;5051143;28;20021;-42
2023/01/07 03:33:06;;;;;;;7.18;3.78;;;;;;;;;;5051476;28;20364;-41
2023/01/07 03:35:33;;;;;;;9.13;4.13;;;;;;;;;;5050978;28;20026;-41
2023/01/07 03:37:59;;;;;;;7.47;4.25;;;;;;;;;;5051428;28;20013;-42
2023/01/07 03:40:25;;;;;;;8.35;4.15;;;;;;;;;;5049701;28;20048;-42
2023/01/07 03:42:52;;;;;;;6.40;3.28;;;;;;;;;;5051181;28;20020;-42
2023/01/07 03:45:23;;;;;;;7.82;4.28;;;;;;;;;;5049690;28;20430;-42
2023/01/07 03:47:50;;;;;;;9.82;3.63;;;;;;;;;;5049630;28;20505;-42
2023/01/07 03:50:17;;;;;;;5.63;2.60;;;;;;;;;;5049649;28;20029;-41
2023/01/07 03:52:44;;;;;;;9.38;3.63;;;;;;;;;;5049575;28;20039;-42
2023/01/07 03:55:10;;;;;;;4.78;3.17;;;;;;;;;;5051130;28;20024;-42
2023/01/07 03:57:36;;;;;;;7.75;3.42;;;;;;;;;;5049476;28;20060;-42
2023/01/07 04:00:07;;;;;;;7.35;3.33;;;;;;;;;;5049618;28;20048;-42
2023/01/07 04:02:39;;;;;;;7.82;3.55;;;;;;;;;;5050628;28;20494;-42
2023/01/07 04:05:05;;;;;;;6.35;3.72;;;;;;;;;;5049552;28;20082;-42
2023/01/07 04:07:31;;;;;;;6.60;3.13;;;;;;;;;;5049368;28;20029;-41
2023/01/07 04:09:56;;;;;;;6.80;3.28;;;;;;;;;;5049514;28;20025;-42
2023/01/07 04:12:22;;;;;;;6.28;3.22;;;;;;;;;;5049464;28;20030;-42
2023/01/07 04:14:48;;;;;;;5.28;2.95;;;;;;;;;;5049371;28;20029;-42
2023/01/07 04:17:13;;;;;;;7.22;3.13;;;;;;;;;;5053918;28;20596;-42
2023/01/07 04:19:39;;;;;;;6.78;3.80;;;;;;;;;;5053007;28;20471;-41
2023/01/07 04:22:05;;;;;;;5.45;2.95;;;;;;;;;;5054611;28;20382;-41
2023/01/07 04:24:31;;;;;;;5.93;3.10;;;;;;;;;;5052836;28;20029;-41
2023/01/07 04:26:56;;;;;;;6.30;3.58;;;;;;;;;;5052936;28;20047;-42
2023/01/07 04:29:22;;;;;;;5.05;3.03;;;;;;;;;;5052880;28;20490;-41
2023/01/07 04:31:48;;;;;;;6.15;3.35;;;;;;;;;;5036177;28;20021;-42
2023/01/07 04:34:14;;;;;;;8.07;3.97;;;;;;;;;;5052849;28;20487;-42
2023/01/07 04:36:41;;;;;;;5.38;3.17;;;;;;;;;;5052936;28;20075;-42
2023/01/07 04:39:07;;;;;;;4.97;3.00;;;;;;;;;;5052654;28;20041;-41
2023/01/07 04:41:32;;;;;;;6.32;3.35;;;;;;;;;;5052579;28;20021;-41
2023/01/07 04:43:58;;;;;;;4.70;2.35;;;;;;;;;;5052814;28;20098;-42
2023/01/07 04:46:24;;;;;;;7.50;2.88;;;;;;;;;;5052432;28;20124;-41
2023/01/07 04:48:51;;;;;;;3.63;2.40;;;;;;;;;;5052456;28;20475;-42
2023/01/07 04:51:19;;;;;;;5.75;2.35;;;;;;;;;;5052534;28;20066;-41
2023/01/07 04:53:45;;;;;;;4.78;2.47;;;;;;;;;;5053588;28;20032;-41
2023/01/07 04:56:10;;;;;;;2.92;1.83;;;;;;;;;;5052382;28;20070;-42
2023/01/07 04:58:37;;;;;;;8.38;2.97;;;;;;;;;;5052283;28;20033;-42
2023/01/07 05:01:03;;;;;;;4.25;2.17;;;;;;;;;;5053310;28;20040;-41
2023/01/07 05:03:30;;;;;;;6.20;3.08;;;;;;;;;;5052155;28;20048;-42
2023/01/07 05:05:56;;;;;;;7.53;3.78;;;;;;;;;;5052197;28;20464;-42
2023/01/07 05:08:22;;;;;;;4.85;3.30;;;;;;;;;;5052030;28;20044;-41
2023/01/07 05:10:51;;;;;;;7.30;4.43;;;;;;;;;;5052064;28;20029;-41
2023/01/07 05:13:17;;;;;;;4.60;2.72;;;;;;;;;;5051977;28;20044;-42
2023/01/07 05:15:44;;;;;;;4.30;2.42;;;;;;;;;;5051895;28;20020;-41
2023/01/07 05:18:10;;;;;;;5.07;2.92;;;;;;;;;;5052051;28;20086;-41
2023/01/07 05:20:36;;;;;;;5.50;3.17;;;;;;;;;;5053435;28;20037;-41
2023/01/07 05:23:03;;;;;;;5.30;3.72;;;;;;;;;;5051794;28;20044;-42
2023/01/07 05:25:28;;;;;;;4.70;2.13;;;;;;;;;;5053046;28;20025;-41
2023/01/07 05:27:54;;;;;;;4.45;2.20;;;;;;;;;;5051586;28;20044;-42
2023/01/07 05:30:21;;;;;;;10.98;2.85;;;;;;;;;;5051725;28;20020;-42
2023/01/07 05:32:47;;;;;;;5.30;2.95;;;;;;;;;;5051674;28;20043;-42
2023/01/07 05:35:12;;;;;;;6.45;2.72;;;;;;;;;;5051560;28;20530;-42
2023/01/07 05:37:38;;;;;;;5.63;2.80;;;;;;;;;;5051515;28;20079;-42
2023/01/07 05:40:06;;;;;;;7.38;2.95;;;;;;;;;;5051603;28;20013;-42
2023/01/07 05:42:31;;;;;;;8.70;3.17;;;;;;;;;;5052697;28;20040;-42
2023/01/07 05:44:58;;;;;;;5.90;2.97;;;;;;;;;;5051378;28;20067;-42
2023/01/07 05:47:23;;;;;;;8.82;3.38;;;;;;;;;;5052735;28;20108;-42
2023/01/07 05:49:49;;;;;;;5.32;2.90;;;;;;;;;;5052543;28;20047;-42
2023/01/07 05:52:14;;;;;;;6.68;3.00;;;;;;;;;;5052675;28;20093;-41
2023/01/07 05:54:40;;;;;;;3.85;2.05;;;;;;;;;;5052482;28;20356;-41
2023/01/07 05:57:05;;;;;;;7.90;3.75;;;;;;;;;;5052676;28;20053;-42
2023/01/07 05:59:33;;;;;;;15.80;3.53;;;;;;;;;;5052675;28;20062;-45
2023/01/07 06:01:59;;;;;;;3.72;2.55;;;;;;;;;;5052175;28;20045;-42
2023/01/07 06:04:25;;;;;;;5.93;2.97;;;;;;;;;;5052225;28;20124;-42
2023/01/07 06:06:51;;;;;;;6.28;3.03;;;;;;;;;;5052150;28;20167;-44
2023/01/07 06:09:16;;;;;;;6.38;2.47;;;;;;;;;;5052286;28;20352;-42
2023/01/07 06:11:41;;;;;;;6.68;3.22;;;;;;;;;;5052117;28;20047;-42
2023/01/07 06:14:07;;;;;;;5.40;2.90;;;;;;;;;;5052441;28;20413;-42
2023/01/07 06:16:32;;;;;;;2.85;2.58;;;;;;;;;;5052422;28;20467;-41
2023/01/07 06:18:57;;;;;;;8.52;3.53;;;;;;;;;;5052117;28;20028;-41
2023/01/07 06:21:23;;;;;;;4.50;2.85;;;;;;;;;;5051988;28;20441;-42
2023/01/07 06:23:48;;;;;;;7.07;2.58;;;;;;;;;;5051978;28;20028;-42
2023/01/07 06:26:14;;;;;;;3.80;2.95;;;;;;;;;;5052185;28;20483;-41
2023/01/07 06:28:39;;;;;;;4.05;2.50;;;;;;;;;;5051822;28;20025;-41
2023/01/07 06:31:05;;;;;;;10.15;2.88;;;;;;;;;;5051863;28;20059;-41
2023/01/07 06:33:36;;;;;;;7.90;3.35;;;;;;;;;;5051655;28;20715;-41
2023/01/07 06:36:02;;;;;;;5.65;3.17;;;;;;;;;;5051853;28;20025;-41
2023/01/07 06:38:28;;;;;;;5.80;2.78;;;;;;;;;;5051460;28;20025;-42
2023/01/07 06:40:53;;;;;;;4.05;2.70;;;;;;;;;;5051923;28;20387;-42
2023/01/07 06:43:19;;;;;;;6.78;3.08;;;;;;;;;;5051610;28;20454;-42
2023/01/07 06:45:44;;;;;;;6.28;3.30;;;;;;;;;;5051898;28;20037;-42
2023/01/07 06:48:09;;;;;;;7.25;3.65;;;;;;;;;;5051469;28;20082;-41
2023/01/07 06:50:35;;;;;;;5.63;2.72;;;;;;;;;;5051550;28;20031;-42
2023/01/07 06:53:00;;;;;;;4.97;2.88;;;;;;;;;;5051737;28;20024;-42
2023/01/07 06:55:26;;;;;;;7.20;3.08;;;;;;;;;;5051487;28;20025;-41
2023/01/07 06:57:52;;;;;;;3.47;2.53;;;;;;;;;;5051333;28;20525;-41
2023/01/07 07:00:18;;;;;;;3.28;2.28;;;;;;;;;;5051475;28;20033;-42
2023/01/07 07:02:43;;;;;;;4.72;2.78;;;;;;;;;;5051167;28;20049;-41
2023/01/07 07:05:09;;;;;;;8.65;3.22;;;;;;;;;;5051423;28;20033;-41
2023/01/07 07:07:35;;;;;;;5.32;2.90;;;;;;;;;;5051173;28;20482;-41
2023/01/07 07:10:05;;;;;;;5.13;2.55;;;;;;;;;;5051638;28;20025;-42
2023/01/07 07:12:32;;;;;;;3.33;2.28;;;;;;;;;;5051216;28;20029;-41
2023/01/07 07:14:57;;;;;;;5.18;3.60;;;;;;;;;;5051288;28;20028;-42
2023/01/07 07:17:23;;;;;;;7.82;3.10;;;;;;;;;;5051476;28;20029;-41
2023/01/07 07:19:48;;;;;;;6.05;2.50;;;;;;;;;;5051242;28;20506;-41
2023/01/07 07:22:14;;;;;;;4.10;2.60;;;;;;;;;;5051524;28;20045;-41
2023/01/07 07:24:39;;;;;;;4.13;3.03;;;;;;;;;;5051173;28;20430;-42
2023/01/07 07:27:04;;;;;;;7.43;3.78;;;;;;;;;;5051148;28;20055;-42
2023/01/07 07:29:30;;;;;;;3.75;2.13;;;;;;;;;;5051328;28;20064;-42
2023/01/07 07:31:55;;;;;;;5.30;2.72;;;;;;;;;;5051181;28;20040;-42
2023/01/07 07:34:21;;;;;;;3.92;2.78;;;;;;;;;;5051136;28;20021;-42
2023/01/07 07:36:46;;;;;;;13.93;2.72;;;;;;;;;;5050996;28;20029;-42
2023/01/07 07:39:12;;;;;;;6.63;3.17;;;;;;;;;;5051158;28;20033;-41
2023/01/07 07:41:37;;;;;;;7.15;2.17;;;;;;;;;;5051178;28;20127;-42
2023/01/07 07:44:07;;;;;;;4.43;2.72;;;;;;;;;;5051220;28;20025;-41
2023/01/07 07:46:32;;;;;;;5.60;3.17;;;;;;;;;;5050930;28;20029;-41
2023/01/07 07:48:58;;;;;;;4.75;2.50;;;;;;;;;;5051088;28;20376;-41
2023/01/07 07:51:23;;;;;;;6.28;3.40;;;;;;;;;;5052751;28;20076;-41
2023/01/07 07:53:49;;;;;;;5.68;3.03;;;;;;;;;;5054694;28;20474;-42
2023/01/07 07:56:14;;;;;;;4.43;3.08;;;;;;;;;;5054833;28;20033;-42
2023/01/07 07:58:41;;;;;;;8.00;2.53;;;;;;;;;;5054616;28;20017;-42
2023/01/07 08:01:08;;;;;;;8.70;2.88;;;;;;;;;;5054547;28;20047;-42
2023/01/07 08:03:34;;;;;;;7.35;3.10;;;;;;;;;;5054585;28;20043;-41
2023/01/07 08:05:59;;;;;;;3.90;1.95;;;;;;;;;;5054589;28;20032;-42
2023/01/07 08:08:25;;;;;;;4.35;3.05;;;;;;;;;;5054633;28;20021;-42
2023/01/07 08:10:53;;;;;;;7.28;3.63;;;;;;;;;;5054541;28;20463;-41
2023/01/07 08:13:18;;;;;;;12.60;3.08;;;;;;;;;;5054381;28;20037;-41
2023/01/07 08:15:44;;;;;;;6.65;3.00;;;;;;;;;;5054431;28;20067;-42
2023/01/07 08:18:09;;;;;;;7.90;3.80;;;;;;;;;;5054280;28;20079;-41
2023/01/07 08:20:36;;;;;;;4.53;3.13;;;;;;;;;;5054223;28;20561;-42
2023/01/07 08:23:02;;;;;;;6.45;3.67;;;;;;;;;;5054350;28;20108;-49
2023/01/07 08:25:29;;;;;;;6.25;3.25;;;;;;;;;;5054558;28;20073;-42
2023/01/07 08:27:55;;;;;;;10.43;4.43;;;;;;;;;;5054014;28;20036;-41
2023/01/07 08:30:21;;;;;;;6.90;3.58;;;;;;;;;;5054154;28;20028;-41
2023/01/07 08:32:46;;;;;;;6.70;3.35;;;;;;;;;;5054286;28;20025;-42
2023/01/07 08:35:12;;;;;;;10.48;4.22;;;;;;;;;;5054075;28;20471;-41
2023/01/07 08:37:37;;;;;;;7.25;4.28;;;;;;;;;;5053885;28;20036;-41
2023/01/07 08:40:04;;;;;;;7.03;4.15;;;;;;;;;;5054047;28;20100;-41
2023/01/07 08:42:30;;;;;;;8.65;3.85;;;;;;;;;;5053844;28;20027;-42
2023/01/07 08:44:55;;;;;;;6.35;3.15;;;;;;;;;;5052559;28;20021;-41
2023/01/07 08:47:21;;;;;;;8.55;3.92;;;;;;;;;;5053794;28;20029;-41
2023/01/07 08:49:46;;;;;;;7.53;3.65;;;;;;;;;;5053707;28;20021;-41
2023/01/07 08:52:12;;;;;;;4.93;2.72;;;;;;;;;;5053791;28;20032;-41
2023/01/07 08:54:38;;;;;;;7.35;3.42;;;;;;;;;;5053865;28;20155;-41
2023/01/07 08:57:03;;;;;;;11.95;3.42;;;;;;;;;;5053621;28;20036;-41
2023/01/07 08:59:29;;;;;;;5.97;3.25;;;;;;;;;;5053911;28;20040;-42
2023/01/07 09:01:54;;;;;;;5.20;3.45;;;;;;;;;;5052964;28;20045;-42
2023/01/07 09:04:20;;;;;;;6.10;3.38;;;;;;;;;;5053494;28;20031;-42
2023/01/07 09:06:46;;;;;;;10.27;4.15;;;;;;;;;;5053145;28;20037;-42
2023/01/07 09:09:13;;;;;;;3.88;2.42;;;;;;;;;;5053672;28;20017;-42
2023/01/07 09:11:39;;;;;;;9.73;3.25;;;;;;;;;;5053633;28;20051;-42
2023/01/07 09:14:04;;;;;;;7.53;2.58;;;;;;;;;;5053340;28;20745;-41
2023/01/07 09:16:30;;;;;;;6.78;3.17;;;;;;;;;;5053183;28;20031;-42
2023/01/07 09:18:55;;;;;;;9.45;2.95;;;;;;;;;;5053360;28;20033;-41
2023/01/07 09:21:21;;;;;;;5.90;3.63;;;;;;;;;;5053371;28;20024;-41
2023/01/07 09:23:47;;;;;;;6.72;2.95;;;;;;;;;;5053054;28;20056;-41
2023/01/07 09:26:12;;;;;;;4.80;3.13;;;;;;;;;;5053068;28;20096;-41
2023/01/07 09:28:38;;;;;;;7.68;3.13;;;;;;;;;;5053002;28;20047;-42
2023/01/07 09:31:04;;;;;;;11.43;3.03;;;;;;;;;;5053046;28;20107;-41
2023/01/07 09:33:30;;;;;;;6.63;3.22;;;;;;;;;;5052938;28;20063;-41
2023/01/07 09:35:55;;;;;;;16.02;3.33;;;;;;;;;;5053027;28;20024;-41
2023/01/07 09:38:21;;;;;;;5.32;2.72;;;;;;;;;;5053076;28;20021;-41
2023/01/07 09:40:46;;;;;;;3.38;2.15;;;;;;;;;;5052782;28;20486;-42
2023/01/07 09:43:32;;;;;;;5.25;2.70;;;;;;;;;;5052749;28;20438;-41
2023/01/07 09:46:00;;;;;;;7.03;3.30;;;;;;;;;;5052680;28;20084;-41
2023/01/07 09:48:28;;;;;;;5.25;2.25;;;;;;;;;;5052961;28;20025;-42
2023/01/07 09:51:05;;;;;;;4.15;2.22;;;;;;;;;;5052542;28;20471;-42
2023/01/07 09:53:46;;;;;;;6.38;3.50;;;;;;;;;;5052646;28;20056;-42
2023/01/07 09:56:25;;;;;;;4.88;2.95;;;;;;;;;;5052532;28;20025;-42
2023/01/07 09:58:52;;;;;;;4.85;2.78;;;;;;;;;;5052455;28;20028;-42
2023/01/07 10:01:23;;;;;;;13.48;3.78;;;;;;;;;;5052264;28;20136;-41
2023/01/07 10:03:54;;;;;;;5.18;3.25;;;;;;;;;;5052380;28;20076;-42
2023/01/07 10:06:23;;;;;;;7.80;3.05;;;;;;;;;;5052200;28;20094;-42
2023/01/07 10:09:12;;;;;;;7.05;3.50;;;;;;;;;;5051261;28;20045;-42
2023/01/07 10:11:43;;;;;;;6.00;3.67;;;;;;;;;;5052211;28;20056;-42
2023/01/07 10:14:28;;;;;;;7.13;3.90;;;;;;;;;;5051238;28;20036;-42
2023/01/07 10:16:53;;;;;;;8.32;5.05;;;;;;;;;;5052092;28;20033;-42
2023/01/07 10:19:22;;;;;;;12.00;5.60;;;;;;;;;;5052081;28;20150;-42
2023/01/07 10:21:50;;;;;;;8.10;3.90;;;;;;;;;;5052221;28;20025;-41
2023/01/07 10:24:26;;;;;;;9.23;4.03;;;;;;;;;;5052042;28;20025;-42
2023/01/07 10:26:54;;;;;;;8.00;3.53;;;;;;;;;;5052079;28;20049;-42
2023/01/07 10:29:39;;;;;;;7.53;3.28;;;;;;;;;;5051950;28;20021;-42
2023/01/07 10:32:18;;;;;;;12.20;3.72;;;;;;;;;;5051563;28;20056;-43
2023/01/07 10:34:46;;;;;;;9.48;5.15;;;;;;;;;;5051888;28;20183;-42
2023/01/07 10:37:25;;;;;;;11.80;4.25;;;;;;;;;;5051872;28;20016;-42
2023/01/07 10:40:11;;;;;;;10.10;4.47;;;;;;;;;;5051654;28;20467;-42
2023/01/07 10:42:55;;;;;;;13.20;4.55;;;;;;;;;;5040228;28;20072;-42
2023/01/07 10:45:20;;;;;;;8.10;4.15;;;;;;;;;;5051713;28;20384;-41
2023/01/07 10:47:49;;;;;;;6.50;4.22;;;;;;;;;;5051756;28;20032;-42
2023/01/07 10:50:33;;;;;;;7.50;5.32;;;;;;;;;;5051634;28;20395;-41
2023/01/07 10:53:11;;;;;;;17.45;6.15;;;;;;;;;;5051526;28;20029;-42
2023/01/07 10:55:36;;;;;;;15.85;6.65;;;;;;;;;;5051485;28;20036;-42
2023/01/07 10:58:02;;;;;;;15.82;7.78;;;;;;;;;;5051470;28;20021;-42
2023/01/07 11:00:28;;;;;;;15.70;7.65;;;;;;;;;;5051769;28;20090;-41
2023/01/07 11:02:56;;;;;;;12.68;6.80;;;;;;;;;;5051156;28;20407;-41
2023/01/07 11:05:23;;;;;;;15.65;6.32;;;;;;;;;;5051413;28;20467;-42
2023/01/07 11:07:51;;;;;;;18.52;6.57;;;;;;;;;;5051242;28;20047;-42
2023/01/07 11:10:21;;;;;;;20.05;7.88;;;;;;;;;;5051303;28;20036;-42
2023/01/07 11:12:52;;;;;;;15.23;7.15;;;;;;;;;;5051280;28;20059;-42
2023/01/07 11:15:17;;;;;;;15.27;5.70;;;;;;;;;;5051598;28;20104;-42
2023/01/07 11:17:45;;;;;;;14.82;6.72;;;;;;;;;;5051450;28;20159;-42
2023/01/07 11:20:11;;;;;;;15.50;6.30;;;;;;;;;;5051297;28;20029;-42
2023/01/07 11:22:37;;;;;;;12.15;5.72;;;;;;;;;;5051375;28;20494;-43
2023/01/07 11:25:22;;;;;;;14.05;6.95;;;;;;;;;;5052839;28;20048;-42
2023/01/07 11:27:47;;;;;;;10.40;5.65;;;;;;;;;;5055214;28;20041;-42
2023/01/07 11:30:32;;;;;;;17.08;5.57;;;;;;;;;;5055304;28;20524;-42
2023/01/07 11:33:05;;;;;;;13.38;6.70;;;;;;;;;;5055199;28;20510;-42
2023/01/07 11:35:31;;;;;;;13.80;6.15;;;;;;;;;;5055140;28;20636;-42
2023/01/07 11:37:57;;;;;;;12.98;5.68;;;;;;;;;;5055143;28;20017;-42
2023/01/07 11:40:24;;;;;;;14.82;5.07;;;;;;;;;;5055088;28;20390;-41
2023/01/07 11:42:59;;;;;;;12.95;5.80;;;;;;;;;;5054844;28;20025;-41
2023/01/07 11:45:33;;;;;;;10.75;5.70;;;;;;;;;;5055485;28;20037;-42
2023/01/07 11:48:08;;;;;;;12.68;6.43;;;;;;;;;;5054914;28;20151;-42
2023/01/07 11:50:54;;;;;;;13.90;5.35;;;;;;;;;;5054840;28;20040;-42
2023/01/07 11:53:33;;;;;;;12.73;5.25;;;;;;;;;;5054844;28;20025;-43
2023/01/07 11:56:12;;;;;;;11.70;5.57;;;;;;;;;;5055073;28;20036;-42
2023/01/07 11:58:45;;;;;;;7.95;5.13;;;;;;;;;;5054761;28;20495;-41
2023/01/07 12:01:12;;;;;;;13.77;6.35;;;;;;;;;;5054483;28;20466;-42
2023/01/07 12:03:39;;;;;;;16.25;6.85;;;;;;;;;;5054974;28;20108;-42
2023/01/07 12:06:10;;;;;;;13.02;6.47;;;;;;;;;;5054630;28;20056;-42
2023/01/07 12:08:40;;;;;;;12.27;6.18;;;;;;;;;;5054539;28;20045;-42
2023/01/07 12:11:07;;;;;;;18.20;7.55;;;;;;;;;;5054572;28;20536;-42
2023/01/07 12:13:34;;;;;;;12.95;5.43;;;;;;;;;;5054686;28;20416;-42
2023/01/07 12:16:01;;;;;;;10.77;6.07;;;;;;;;;;5054465;28;20105;-42
2023/01/07 12:18:53;;;;;;;13.93;6.88;;;;;;;;;;5054457;28;20108;-42
2023/01/07 12:21:23;;;;;;;12.30;7.53;;;;;;;;;;5054249;28;20032;-41
2023/01/07 12:23:55;;;;;;;13.30;6.97;;;;;;;;;;5054525;28;20125;-41
2023/01/07 12:26:23;;;;;;;12.18;6.75;;;;;;;;;;5054223;28;20029;-42
2023/01/07 12:29:09;;;;;;;10.88;5.60;;;;;;;;;;5054112;28;20033;-42
2023/01/07 12:31:40;;;;;;;12.07;6.50;;;;;;;;;;5054156;28;20090;-41
2023/01/07 12:34:18;;;;;;;12.50;5.68;;;;;;;;;;5054130;28;20025;-41
2023/01/07 12:36:52;;;;;;;16.30;7.10;;;;;;;;;;5053057;28;20079;-41
2023/01/07 12:39:30;;;;;;;16.25;7.15;;;;;;;;;;5053999;28;20039;-41
2023/01/07 12:42:19;;;;;;;12.52;5.82;;;;;;;;;;5053983;28;20111;-42
2023/01/07 12:44:50;;;;;;;11.00;6.50;;;;;;;;;;5050809;28;20045;-42
2023/01/07 12:47:28;;;;;;;13.35;6.75;;;;;;;;;;5054111;28;20045;-41
2023/01/07 12:50:06;;;;;;;12.10;5.93;;;;;;;;;;5053821;28;20037;-42
2023/01/07 12:52:34;;;;;;;13.80;6.30;;;;;;;;;;5053791;28;20031;-42
2023/01/07 12:55:06;;;;;;;9.88;5.43;;;;;;;;;;5054010;28;20017;-42
2023/01/07 12:57:35;;;;;;;18.75;8.32;;;;;;;;;;5053660;28;20037;-42
2023/01/07 13:00:16;;;;;;;15.50;7.10;;;;;;;;;;5053877;28;20029;-42
2023/01/07 13:02:50;;;;;;;12.73;7.68;;;;;;;;;;5053310;28;20059;-42
2023/01/07 13:05:27;;;;;;;15.82;7.28;;;;;;;;;;5053454;28;20035;-43
2023/01/07 13:07:53;;;;;;;11.20;4.80;;;;;;;;;;5053333;28;20044;-42
2023/01/07 13:10:27;;;;;;;12.32;6.68;;;;;;;;;;5053420;28;20521;-42
2023/01/07 13:12:59;;;;;;;14.85;7.13;;;;;;;;;;5053298;28;20039;-42
2023/01/07 13:15:32;;;;;;;9.85;5.88;;;;;;;;;;5053667;28;20163;-42
2023/01/07 13:18:03;;;;;;;16.85;5.50;;;;;;;;;;5053228;28;20420;-42
2023/01/07 13:20:32;;;;;;;11.85;5.45;;;;;;;;;;5053469;28;20124;-42
2023/01/07 13:22:58;;;;;;;13.00;5.63;;;;;;;;;;5053403;28;20472;-42
2023/01/07 13:25:31;;;;;;;11.02;5.90;;;;;;;;;;5053112;28;20060;-41
2023/01/07 13:28:00;;;;;;;13.93;6.60;;;;;;;;;;5053293;28;20041;-42
2023/01/07 13:30:43;;;;;;;12.57;7.20;;;;;;;;;;5053015;28;20104;-41
2023/01/07 13:33:44;;;;;;;14.55;6.80;;;;;;;;;;5052926;28;20083;-42
2023/01/07 13:36:23;;;;;;;12.48;6.35;;;;;;;;;;5030686;28;20063;-42
2023/01/07 13:39:06;;;;;;;14.38;7.28;;;;;;;;;;5050008;28;20060;-42
2023/01/07 13:41:38;;;;;;;14.65;6.88;;;;;;;;;;5052833;28;20028;-42
2023/01/07 13:44:04;;;;;;;10.63;6.47;;;;;;;;;;5052768;28;20095;-41
2023/01/07 13:46:32;;;;;;;14.93;6.65;;;;;;;;;;5052954;28;20078;-41
2023/01/07 13:48:57;;;;;;;12.52;7.15;;;;;;;;;;5052577;28;20301;-42
2023/01/07 13:51:25;;;;;;;15.52;7.15;;;;;;;;;;5052716;28;20017;-42
2023/01/07 13:53:50;;;;;;;11.85;6.45;;;;;;;;;;5052454;28;20036;-42
2023/01/07 13:56:16;;;;;;;17.30;7.03;;;;;;;;;;5052631;28;20021;-42
2023/01/07 13:58:47;;;;;;;16.23;7.47;;;;;;;;;;5052456;28;20394;-42
2023/01/07 14:01:17;;;;;;;16.05;8.38;;;;;;;;;;5052374;28;20594;-41
2023/01/07 14:03:46;;;;;;;18.15;7.70;;;;;;;;;;5052396;28;20039;-41
2023/01/07 14:06:21;;;;;;;15.70;6.70;;;;;;;;;;5052315;28;20021;-42
2023/01/07 14:08:52;;;;;;;12.90;7.30;;;;;;;;;;5052231;28;20036;-42
2023/01/07 14:11:18;;;;;;;17.20;7.13;;;;;;;;;;5052339;28;20021;-42
2023/01/07 14:13:49;;;;;;;16.92;7.82;;;;;;;;;;5052420;28;20021;-42
2023/01/07 14:16:18;;;;;;;15.95;7.45;;;;;;;;;;5052123;28;20025;-42
2023/01/07 14:19:08;;;;;;;14.70;7.63;;;;;;;;;;5052354;28;20028;-42
2023/01/07 14:21:52;;;;;;;16.90;7.40;;;;;;;;;;5052104;28;20115;-42
2023/01/07 14:24:17;;;;;;;14.30;7.28;;;;;;;;;;5052226;28;20028;-42
2023/01/07 14:26:49;;;;;;;23.50;10.35;;;;;;;;;;5052123;28;20028;-42
2023/01/07 14:29:30;;;;;;;17.25;9.25;;;;;;;;;;5052214;28;20423;-42
2023/01/07 14:32:18;;;;;;;20.33;10.98;;;;;;;;;;5052206;28;20032;-42
2023/01/07 14:34:51;;;;;;;16.70;7.95;;;;;;;;;;5048592;28;20037;-41
2023/01/07 14:37:27;;;;;;;18.58;7.60;;;;;;;;;;5051826;28;20028;-42
2023/01/07 14:39:52;;;;;;;18.63;8.90;;;;;;;;;;5051754;28;20495;-42
2023/01/07 14:42:18;;;;;;;19.73;8.57;;;;;;;;;;5050831;28;20024;-42
2023/01/07 14:44:47;;;;;;;16.48;8.27;;;;;;;;;;5051595;28;20379;-42
2023/01/07 14:47:14;;;;;;;13.20;7.55;;;;;;;;;;5051624;28;20625;-42
2023/01/07 14:49:39;;;;;;;18.58;7.97;;;;;;;;;;5051614;28;20040;-42